sensor_id;sensor_type;location;lat;lon;timestamp;pressure;altitude;pressure_sealevel;temperature;humidity
11680;BME280;5896;42.686;23.142;2024-03-06T00:02:23;92866.44;;;1.59;91.44
11680;BME280;5896;42.686;23.142;2024-03-06T00:04:49;92859.91;;;1.57;91.28
11680;BME280;5896;42.686;23.142;2024-03-06T00:07:14;92868.03;;;1.52;91.77
11680;BME280;5896;42.686;23.142;2024-03-06T00:09:40;92872.16;;;1.53;92.18
11680;BME280;5896;42.686;23.142;2024-03-06T00:12:05;92879.00;;;1.53;92.25
11680;BME280;5896;42.686;23.142;2024-03-06T00:14:31;92866.63;;;1.50;92.02
11680;BME280;5896;42.686;23.142;2024-03-06T00:16:56;92869.47;;;1.46;91.96
11680;BME280;5896;42.686;23.142;2024-03-06T00:19:22;92878.13;;;1.37;91.36
11680;BME280;5896;42.686;23.142;2024-03-06T00:21:48;92879.53;;;1.40;90.61
11680;BME280;5896;42.686;23.142;2024-03-06T00:24:14;92880.50;;;1.39;91.63
11680;BME280;5896;42.686;23.142;2024-03-06T00:26:44;92878.59;;;1.41;91.86
11680;BME280;5896;42.686;23.142;2024-03-06T00:29:10;92885.09;;;1.35;91.63
11680;BME280;5896;42.686;23.142;2024-03-06T00:31:36;92871.94;;;1.32;92.13
11680;BME280;5896;42.686;23.142;2024-03-06T00:34:02;92877.63;;;1.42;93.15
11680;BME280;5896;42.686;23.142;2024-03-06T00:36:27;92877.63;;;1.42;92.24
11680;BME280;5896;42.686;23.142;2024-03-06T00:38:53;92876.50;;;1.44;93.02
11680;BME280;5896;42.686;23.142;2024-03-06T00:41:18;92872.50;;;1.50;92.70
11680;BME280;5896;42.686;23.142;2024-03-06T00:43:44;92881.88;;;1.50;92.54
11680;BME280;5896;42.686;23.142;2024-03-06T00:46:10;92873.66;;;1.39;92.24
11680;BME280;5896;42.686;23.142;2024-03-06T00:48:36;92880.34;;;1.40;92.18
11680;BME280;5896;42.686;23.142;2024-03-06T00:51:01;92870.50;;;1.37;92.23
11680;BME280;5896;42.686;23.142;2024-03-06T00:53:27;92869.06;;;1.35;92.90
11680;BME280;5896;42.686;23.142;2024-03-06T00:55:52;92871.59;;;1.35;93.28
11680;BME280;5896;42.686;23.142;2024-03-06T00:58:18;92877.44;;;1.43;93.55
11680;BME280;5896;42.686;23.142;2024-03-06T01:00:43;92878.53;;;1.49;93.62
11680;BME280;5896;42.686;23.142;2024-03-06T01:03:09;92880.59;;;1.54;93.06
11680;BME280;5896;42.686;23.142;2024-03-06T01:05:34;92877.25;;;1.53;93.08
11680;BME280;5896;42.686;23.142;2024-03-06T01:07:59;92884.69;;;1.55;93.13
11680;BME280;5896;42.686;23.142;2024-03-06T01:10:25;92877.88;;;1.55;92.78
11680;BME280;5896;42.686;23.142;2024-03-06T01:12:51;92867.25;;;1.52;92.73
11680;BME280;5896;42.686;23.142;2024-03-06T01:15:16;92870.00;;;1.42;92.62
11680;BME280;5896;42.686;23.142;2024-03-06T01:17:42;92875.91;;;1.34;92.77
11680;BME280;5896;42.686;23.142;2024-03-06T01:20:08;92866.06;;;1.31;93.47
11680;BME280;5896;42.686;23.142;2024-03-06T01:22:34;92860.34;;;1.29;93.72
11680;BME280;5896;42.686;23.142;2024-03-06T01:24:59;92860.97;;;1.31;93.30
11680;BME280;5896;42.686;23.142;2024-03-06T01:27:25;92858.44;;;1.31;93.47
11680;BME280;5896;42.686;23.142;2024-03-06T01:29:51;92859.84;;;1.34;94.06
11680;BME280;5896;42.686;23.142;2024-03-06T01:32:16;92853.75;;;1.43;93.80
11680;BME280;5896;42.686;23.142;2024-03-06T01:34:42;92855.47;;;1.51;93.68
11680;BME280;5896;42.686;23.142;2024-03-06T01:37:07;92851.03;;;1.53;93.18
11680;BME280;5896;42.686;23.142;2024-03-06T01:39:33;92853.25;;;1.56;93.10
11680;BME280;5896;42.686;23.142;2024-03-06T01:42:00;92856.53;;;1.64;93.44
11680;BME280;5896;42.686;23.142;2024-03-06T01:44:26;92856.53;;;1.64;92.99
11680;BME280;5896;42.686;23.142;2024-03-06T01:46:51;92844.78;;;1.55;93.40
11680;BME280;5896;42.686;23.142;2024-03-06T01:49:16;92855.94;;;1.54;92.72
11680;BME280;5896;42.686;23.142;2024-03-06T01:51:45;92869.53;;;1.38;92.74
11680;BME280;5896;42.686;23.142;2024-03-06T01:54:13;92862.00;;;1.53;93.42
11680;BME280;5896;42.686;23.142;2024-03-06T01:56:44;92860.53;;;1.59;92.91
11680;BME280;5896;42.686;23.142;2024-03-06T01:59:11;92872.41;;;1.35;93.33
11680;BME280;5896;42.686;23.142;2024-03-06T02:01:37;92866.44;;;1.59;93.48
11680;BME280;5896;42.686;23.142;2024-03-06T02:04:04;92861.28;;;1.67;93.08
11680;BME280;5896;42.686;23.142;2024-03-06T02:06:30;92872.75;;;1.63;92.73
11680;BME280;5896;42.686;23.142;2024-03-06T02:08:55;92875.13;;;1.65;92.07
11680;BME280;5896;42.686;23.142;2024-03-06T02:11:22;92876.41;;;1.61;91.99
11680;BME280;5896;42.686;23.142;2024-03-06T02:13:49;92884.38;;;1.58;92.31
11680;BME280;5896;42.686;23.142;2024-03-06T02:16:15;92886.97;;;1.50;92.17
11680;BME280;5896;42.686;23.142;2024-03-06T02:18:54;92890.97;;;1.44;92.77
11680;BME280;5896;42.686;23.142;2024-03-06T02:21:21;92872.34;;;1.43;93.25
11680;BME280;5896;42.686;23.142;2024-03-06T02:23:50;92884.97;;;1.37;92.77
11680;BME280;5896;42.686;23.142;2024-03-06T02:26:19;92887.50;;;1.37;93.10
11680;BME280;5896;42.686;23.142;2024-03-06T02:28:52;92885.75;;;1.37;92.91
11680;BME280;5896;42.686;23.142;2024-03-06T02:31:19;92891.63;;;1.38;93.09
11680;BME280;5896;42.686;23.142;2024-03-06T02:33:46;92888.56;;;1.42;93.78
11680;BME280;5896;42.686;23.142;2024-03-06T02:36:15;92886.53;;;1.38;92.62
11680;BME280;5896;42.686;23.142;2024-03-06T02:38:42;92889.56;;;1.33;92.51
11680;BME280;5896;42.686;23.142;2024-03-06T02:41:07;92883.56;;;1.26;92.95
11680;BME280;5896;42.686;23.142;2024-03-06T02:43:33;92891.34;;;1.25;92.67
11680;BME280;5896;42.686;23.142;2024-03-06T02:45:59;92894.06;;;1.23;93.19
11680;BME280;5896;42.686;23.142;2024-03-06T02:48:24;92896.59;;;1.23;93.02
11680;BME280;5896;42.686;23.142;2024-03-06T02:50:50;92884.88;;;1.14;92.97
11680;BME280;5896;42.686;23.142;2024-03-06T02:53:15;92886.47;;;1.15;93.11
11680;BME280;5896;42.686;23.142;2024-03-06T02:55:41;92888.19;;;1.23;93.80
11680;BME280;5896;42.686;23.142;2024-03-06T02:58:06;92887.38;;;1.30;93.44
11680;BME280;5896;42.686;23.142;2024-03-06T03:00:32;92891.34;;;1.25;93.29
11680;BME280;5896;42.686;23.142;2024-03-06T03:02:57;92896.59;;;1.23;92.86
11680;BME280;5896;42.686;23.142;2024-03-06T03:05:23;92895.94;;;1.21;92.87
11680;BME280;5896;42.686;23.142;2024-03-06T03:07:49;92897.41;;;1.15;93.05
11680;BME280;5896;42.686;23.142;2024-03-06T03:10:15;92888.56;;;1.03;92.84
11680;BME280;5896;42.686;23.142;2024-03-06T03:12:40;92905.06;;;1.07;92.78
11680;BME280;5896;42.686;23.142;2024-03-06T03:15:06;92894.72;;;1.09;93.19
11680;BME280;5896;42.686;23.142;2024-03-06T03:17:32;92907.41;;;1.17;94.07
11680;BME280;5896;42.686;23.142;2024-03-06T03:19:59;92903.91;;;1.26;93.31
11680;BME280;5896;42.686;23.142;2024-03-06T03:22:24;92900.22;;;1.37;93.33
11680;BME280;5896;42.686;23.142;2024-03-06T03:24:49;92906.56;;;1.41;93.05
11680;BME280;5896;42.686;23.142;2024-03-06T03:27:15;92911.63;;;1.41;92.64
11680;BME280;5896;42.686;23.142;2024-03-06T03:29:40;92904.47;;;1.36;92.74
11680;BME280;5896;42.686;23.142;2024-03-06T03:32:06;92902.63;;;1.30;91.97
11680;BME280;5896;42.686;23.142;2024-03-06T03:34:34;92908.31;;;1.32;93.23
11680;BME280;5896;42.686;23.142;2024-03-06T03:36:59;92904.47;;;1.36;92.89
11680;BME280;5896;42.686;23.142;2024-03-06T03:39:24;92914.81;;;1.35;92.48
11680;BME280;5896;42.686;23.142;2024-03-06T03:41:50;92903.56;;;1.37;93.13
11680;BME280;5896;42.686;23.142;2024-03-06T03:44:18;92905.94;;;1.31;92.83
11680;BME280;5896;42.686;23.142;2024-03-06T03:46:45;92910.84;;;1.32;93.26
11680;BME280;5896;42.686;23.142;2024-03-06T03:49:11;92915.47;;;1.37;92.80
11680;BME280;5896;42.686;23.142;2024-03-06T03:51:39;92908.66;;;1.29;92.75
11680;BME280;5896;42.686;23.142;2024-03-06T03:54:05;92905.94;;;1.31;92.88
11680;BME280;5896;42.686;23.142;2024-03-06T03:56:31;92913.75;;;1.29;93.09
11680;BME280;5896;42.686;23.142;2024-03-06T03:58:57;92909.94;;;1.25;92.78
11680;BME280;5896;42.686;23.142;2024-03-06T04:01:24;92915.34;;;1.22;92.49
11680;BME280;5896;42.686;23.142;2024-03-06T04:03:50;92918.38;;;1.17;93.06
11680;BME280;5896;42.686;23.142;2024-03-06T04:06:16;92920.13;;;1.17;92.97
11680;BME280;5896;42.686;23.142;2024-03-06T04:08:41;92931.06;;;1.17;93.84
11680;BME280;5896;42.686;23.142;2024-03-06T04:11:07;92934.75;;;1.15;93.12
11680;BME280;5896;42.686;23.142;2024-03-06T04:13:38;92929.66;;;1.15;93.74
11680;BME280;5896;42.686;23.142;2024-03-06T04:16:04;92931.75;;;1.11;93.31
11680;BME280;5896;42.686;23.142;2024-03-06T04:18:33;92943.97;;;1.16;93.19
11680;BME280;5896;42.686;23.142;2024-03-06T04:21:05;92942.06;;;1.18;94.14
11680;BME280;5896;42.686;23.142;2024-03-06T04:23:32;92942.66;;;1.28;93.71
11680;BME280;5896;42.686;23.142;2024-03-06T04:25:58;92948.19;;;1.40;93.79
11680;BME280;5896;42.686;23.142;2024-03-06T04:28:23;92941.94;;;1.51;94.06
11680;BME280;5896;42.686;23.142;2024-03-06T04:30:49;92950.38;;;1.51;92.71
11680;BME280;5896;42.686;23.142;2024-03-06T04:33:14;92948.97;;;1.49;92.28
11680;BME280;5896;42.686;23.142;2024-03-06T04:35:40;92942.91;;;1.50;92.68
11680;BME280;5896;42.686;23.142;2024-03-06T04:38:06;92944.81;;;1.48;92.38
11680;BME280;5896;42.686;23.142;2024-03-06T04:40:31;92944.19;;;1.45;93.16
11680;BME280;5896;42.686;23.142;2024-03-06T04:42:57;92941.16;;;1.50;93.28
11680;BME280;5896;42.686;23.142;2024-03-06T04:45:22;92953.72;;;1.52;93.03
11680;BME280;5896;42.686;23.142;2024-03-06T04:47:48;92959.25;;;1.55;93.59
11680;BME280;5896;42.686;23.142;2024-03-06T04:50:13;92952.88;;;1.67;93.83
11680;BME280;5896;42.686;23.142;2024-03-06T04:52:43;92952.09;;;1.67;93.22
11680;BME280;5896;42.686;23.142;2024-03-06T04:55:10;92954.59;;;1.75;92.62
11680;BME280;5896;42.686;23.142;2024-03-06T04:57:37;92959.13;;;1.88;92.96
11680;BME280;5896;42.686;23.142;2024-03-06T05:00:03;92958.47;;;1.94;92.87
11680;BME280;5896;42.686;23.142;2024-03-06T05:02:32;92959.56;;;2.00;92.54
11680;BME280;5896;42.686;23.142;2024-03-06T05:05:00;92965.56;;;2.07;92.57
11680;BME280;5896;42.686;23.142;2024-03-06T05:07:27;92966.31;;;2.15;92.71
11680;BME280;5896;42.686;23.142;2024-03-06T05:09:52;92954.66;;;2.21;92.91
11680;BME280;5896;42.686;23.142;2024-03-06T05:12:18;92961.34;;;2.22;92.54
11680;BME280;5896;42.686;23.142;2024-03-06T05:14:43;92962.72;;;2.33;91.67
11680;BME280;5896;42.686;23.142;2024-03-06T05:17:08;92962.50;;;2.42;92.05
11680;BME280;5896;42.686;23.142;2024-03-06T05:19:36;92962.78;;;2.48;92.21
11680;BME280;5896;42.686;23.142;2024-03-06T05:22:01;92970.38;;;2.56;92.21
11680;BME280;5896;42.686;23.142;2024-03-06T05:24:26;92967.41;;;2.67;92.46
11680;BME280;5896;42.686;23.142;2024-03-06T05:26:52;92975.25;;;2.80;92.45
11680;BME280;5896;42.686;23.142;2024-03-06T05:29:17;92968.19;;;2.90;92.20
11680;BME280;5896;42.686;23.142;2024-03-06T05:31:43;92973.66;;;3.02;91.78
11680;BME280;5896;42.686;23.142;2024-03-06T05:34:08;92976.31;;;3.09;91.10
11680;BME280;5896;42.686;23.142;2024-03-06T05:36:33;92981.34;;;3.17;91.47
11680;BME280;5896;42.686;23.142;2024-03-06T05:38:59;92965.34;;;3.23;91.07
11680;BME280;5896;42.686;23.142;2024-03-06T05:41:25;92983.69;;;3.41;90.31
11680;BME280;5896;42.686;23.142;2024-03-06T05:43:50;92983.84;;;3.55;90.64
11680;BME280;5896;42.686;23.142;2024-03-06T05:46:15;92986.94;;;3.65;89.75
11680;BME280;5896;42.686;23.142;2024-03-06T05:48:41;92992.84;;;3.80;88.89
11680;BME280;5896;42.686;23.142;2024-03-06T05:51:07;92990.19;;;3.88;88.92
11680;BME280;5896;42.686;23.142;2024-03-06T05:53:36;92988.84;;;3.93;90.21
11680;BME280;5896;42.686;23.142;2024-03-06T05:56:04;93000.72;;;4.00;89.87
11680;BME280;5896;42.686;23.142;2024-03-06T05:58:31;92988.84;;;4.07;88.88
11680;BME280;5896;42.686;23.142;2024-03-06T06:00:56;92997.97;;;4.17;89.05
11680;BME280;5896;42.686;23.142;2024-03-06T06:03:21;92997.06;;;4.24;89.90
11680;BME280;5896;42.686;23.142;2024-03-06T06:05:47;93001.13;;;4.33;89.26
11680;BME280;5896;42.686;23.142;2024-03-06T06:08:12;93000.78;;;4.36;88.86
11680;BME280;5896;42.686;23.142;2024-03-06T06:10:37;93004.19;;;4.44;88.80
11680;BME280;5896;42.686;23.142;2024-03-06T06:13:03;93005.41;;;4.48;89.41
11680;BME280;5896;42.686;23.142;2024-03-06T06:15:31;93003.81;;;4.47;90.10
11680;BME280;5896;42.686;23.142;2024-03-06T06:17:57;92993.94;;;4.58;89.88
11680;BME280;5896;42.686;23.142;2024-03-06T06:20:22;93004.16;;;4.80;87.83
11680;BME280;5896;42.686;23.142;2024-03-06T06:22:48;93001.91;;;4.92;87.91
11680;BME280;5896;42.686;23.142;2024-03-06T06:25:13;93000.03;;;5.00;87.69
11680;BME280;5896;42.686;23.142;2024-03-06T06:27:40;93007.22;;;5.11;86.01
11680;BME280;5896;42.686;23.142;2024-03-06T06:30:06;93007.25;;;5.18;84.94
11680;BME280;5896;42.686;23.142;2024-03-06T06:32:36;93005.84;;;5.16;85.89
11680;BME280;5896;42.686;23.142;2024-03-06T06:35:02;93004.44;;;5.13;86.76
11680;BME280;5896;42.686;23.142;2024-03-06T06:37:28;92996.00;;;5.12;86.16
11680;BME280;5896;42.686;23.142;2024-03-06T06:39:53;92993.50;;;5.19;84.76
11680;BME280;5896;42.686;23.142;2024-03-06T06:42:19;92988.22;;;5.27;83.60
11680;BME280;5896;42.686;23.142;2024-03-06T06:44:44;92990.03;;;5.33;81.90
11680;BME280;5896;42.686;23.142;2024-03-06T06:47:09;92989.88;;;5.42;82.65
11680;BME280;5896;42.686;23.142;2024-03-06T06:49:35;92994.88;;;5.50;82.86
11680;BME280;5896;42.686;23.142;2024-03-06T06:52:00;93002.47;;;5.65;82.45
11680;BME280;5896;42.686;23.142;2024-03-06T06:54:25;92999.84;;;5.58;84.14
11680;BME280;5896;42.686;23.142;2024-03-06T06:56:51;92995.94;;;5.34;83.55
11680;BME280;5896;42.686;23.142;2024-03-06T06:59:16;93002.16;;;5.53;82.00
11680;BME280;5896;42.686;23.142;2024-03-06T07:01:42;93001.28;;;5.67;82.83
11680;BME280;5896;42.686;23.142;2024-03-06T07:04:08;93000.09;;;5.63;82.84
11680;BME280;5896;42.686;23.142;2024-03-06T07:06:33;93001.97;;;5.82;82.67
11680;BME280;5896;42.686;23.142;2024-03-06T07:08:59;92998.47;;;5.90;81.65
11680;BME280;5896;42.686;23.142;2024-03-06T07:11:24;93010.31;;;5.91;83.58
11680;BME280;5896;42.686;23.142;2024-03-06T07:13:50;93003.59;;;5.90;83.12
11680;BME280;5896;42.686;23.142;2024-03-06T07:16:16;93010.75;;;5.95;82.93
11680;BME280;5896;42.686;23.142;2024-03-06T07:18:41;93005.84;;;6.00;83.76
11680;BME280;5896;42.686;23.142;2024-03-06T07:21:07;93006.28;;;6.10;81.56
11680;BME280;5896;42.686;23.142;2024-03-06T07:23:32;93005.34;;;6.18;82.81
11680;BME280;5896;42.686;23.142;2024-03-06T07:25:58;92998.94;;;6.55;81.78
11680;BME280;5896;42.686;23.142;2024-03-06T07:28:24;93001.19;;;6.71;78.64
11680;BME280;5896;42.686;23.142;2024-03-06T07:30:51;93000.94;;;6.60;80.85
11680;BME280;5896;42.686;23.142;2024-03-06T07:33:16;93001.59;;;6.88;77.90
11680;BME280;5896;42.686;23.142;2024-03-06T07:35:42;93006.34;;;6.98;73.52
11680;BME280;5896;42.686;23.142;2024-03-06T07:38:07;92996.69;;;7.13;70.79
11680;BME280;5896;42.686;23.142;2024-03-06T07:40:32;92988.22;;;7.13;72.75
11680;BME280;5896;42.686;23.142;2024-03-06T07:42:58;92991.75;;;7.18;72.99
11680;BME280;5896;42.686;23.142;2024-03-06T07:45:25;92994.53;;;7.43;75.43
11680;BME280;5896;42.686;23.142;2024-03-06T07:47:51;92992.53;;;7.59;72.42
11680;BME280;5896;42.686;23.142;2024-03-06T07:50:16;92991.31;;;7.61;74.84
11680;BME280;5896;42.686;23.142;2024-03-06T07:52:47;92989.94;;;7.72;74.63
11680;BME280;5896;42.686;23.142;2024-03-06T07:55:13;93001.19;;;7.77;72.51
11680;BME280;5896;42.686;23.142;2024-03-06T07:57:38;92991.28;;;7.88;71.58
11680;BME280;5896;42.686;23.142;2024-03-06T08:00:06;92999.34;;;8.11;72.44
11680;BME280;5896;42.686;23.142;2024-03-06T08:02:40;92997.88;;;8.28;72.38
11680;BME280;5896;42.686;23.142;2024-03-06T08:05:09;92992.59;;;8.10;71.74
11680;BME280;5896;42.686;23.142;2024-03-06T08:07:36;92999.28;;;8.24;72.48
11680;BME280;5896;42.686;23.142;2024-03-06T08:10:01;93006.22;;;8.17;73.00
11680;BME280;5896;42.686;23.142;2024-03-06T08:12:26;93007.16;;;8.29;72.98
11680;BME280;5896;42.686;23.142;2024-03-06T08:14:52;93020.63;;;8.32;71.21
11680;BME280;5896;42.686;23.142;2024-03-06T08:17:19;93014.94;;;8.10;72.61
11680;BME280;5896;42.686;23.142;2024-03-06T08:19:44;93014.34;;;8.21;73.17
11680;BME280;5896;42.686;23.142;2024-03-06T08:22:11;93016.91;;;8.21;71.94
11680;BME280;5896;42.686;23.142;2024-03-06T08:24:36;93023.31;;;7.72;72.75
11680;BME280;5896;42.686;23.142;2024-03-06T08:27:02;93018.53;;;7.95;74.34
11680;BME280;5896;42.686;23.142;2024-03-06T08:29:28;93016.13;;;8.20;71.67
11680;BME280;5896;42.686;23.142;2024-03-06T08:31:53;93012.38;;;8.16;71.66
11680;BME280;5896;42.686;23.142;2024-03-06T08:34:23;93018.84;;;8.39;71.57
11680;BME280;5896;42.686;23.142;2024-03-06T08:36:49;93026.00;;;8.75;70.13
11680;BME280;5896;42.686;23.142;2024-03-06T08:39:14;93010.50;;;8.88;68.64
11680;BME280;5896;42.686;23.142;2024-03-06T08:41:41;93016.94;;;9.04;68.11
11680;BME280;5896;42.686;23.142;2024-03-06T08:44:07;93015.94;;;9.05;68.99
11680;BME280;5896;42.686;23.142;2024-03-06T08:46:32;93019.59;;;9.22;68.37
11680;BME280;5896;42.686;23.142;2024-03-06T08:48:58;93018.19;;;9.26;69.98
11680;BME280;5896;42.686;23.142;2024-03-06T08:51:23;93016.59;;;9.75;67.08
11680;BME280;5896;42.686;23.142;2024-03-06T08:53:50;93017.38;;;10.01;67.05
11680;BME280;5896;42.686;23.142;2024-03-06T08:56:15;93008.78;;;10.44;63.94
11680;BME280;5896;42.686;23.142;2024-03-06T08:58:41;93012.13;;;11.23;61.37
11680;BME280;5896;42.686;23.142;2024-03-06T09:01:06;93003.47;;;12.06;59.50
11680;BME280;5896;42.686;23.142;2024-03-06T09:03:32;93009.38;;;12.30;58.27
11680;BME280;5896;42.686;23.142;2024-03-06T09:05:57;93008.56;;;12.53;57.15
11680;BME280;5896;42.686;23.142;2024-03-06T09:08:22;93016.31;;;12.01;59.34
11680;BME280;5896;42.686;23.142;2024-03-06T09:10:48;93006.53;;;12.55;56.07
11680;BME280;5896;42.686;23.142;2024-03-06T09:13:13;93006.81;;;12.30;54.46
11680;BME280;5896;42.686;23.142;2024-03-06T09:15:39;93010.91;;;10.84;61.09
11680;BME280;5896;42.686;23.142;2024-03-06T09:18:05;93007.59;;;9.66;62.57
11680;BME280;5896;42.686;23.142;2024-03-06T09:20:31;93000.06;;;11.05;58.98
11680;BME280;5896;42.686;23.142;2024-03-06T09:22:57;93002.31;;;11.13;57.54
11680;BME280;5896;42.686;23.142;2024-03-06T09:25:23;92996.19;;;12.55;54.66
11680;BME280;5896;42.686;23.142;2024-03-06T09:27:48;93000.22;;;11.87;57.48
11680;BME280;5896;42.686;23.142;2024-03-06T09:30:14;92998.56;;;12.45;54.85
11680;BME280;5896;42.686;23.142;2024-03-06T09:32:40;93000.44;;;12.09;55.40
11680;BME280;5896;42.686;23.142;2024-03-06T09:35:07;92990.59;;;12.23;58.09
11680;BME280;5896;42.686;23.142;2024-03-06T09:37:32;93000.50;;;12.26;56.73
11680;BME280;5896;42.686;23.142;2024-03-06T09:39:57;93004.25;;;11.72;57.82
11680;BME280;5896;42.686;23.142;2024-03-06T09:42:23;93001.00;;;12.00;57.23
11680;BME280;5896;42.686;23.142;2024-03-06T09:44:48;92993.22;;;12.11;56.31
11680;BME280;5896;42.686;23.142;2024-03-06T09:47:14;92999.00;;;11.90;57.42
11680;BME280;5896;42.686;23.142;2024-03-06T09:49:40;92992.88;;;12.20;57.27
11680;BME280;5896;42.686;23.142;2024-03-06T09:52:05;92997.84;;;12.21;55.13
11680;BME280;5896;42.686;23.142;2024-03-06T09:54:31;92998.63;;;11.75;56.92
11680;BME280;5896;42.686;23.142;2024-03-06T09:56:56;92998.81;;;11.73;57.05
11680;BME280;5896;42.686;23.142;2024-03-06T09:59:24;92992.19;;;11.65;56.77
11680;BME280;5896;42.686;23.142;2024-03-06T10:01:57;92993.00;;;11.12;58.81
11680;BME280;5896;42.686;23.142;2024-03-06T10:04:24;92985.22;;;11.66;57.35
11680;BME280;5896;42.686;23.142;2024-03-06T10:06:50;92990.28;;;12.08;56.05
11680;BME280;5896;42.686;23.142;2024-03-06T10:09:20;92989.41;;;11.79;55.60
11680;BME280;5896;42.686;23.142;2024-03-06T10:11:45;92994.25;;;12.91;53.68
11680;BME280;5896;42.686;23.142;2024-03-06T10:14:11;92981.19;;;13.14;51.70
11680;BME280;5896;42.686;23.142;2024-03-06T10:16:37;92980.13;;;13.78;50.96
11680;BME280;5896;42.686;23.142;2024-03-06T10:19:16;92974.25;;;13.49;48.30
11680;BME280;5896;42.686;23.142;2024-03-06T10:21:47;92985.88;;;12.72;52.05
11680;BME280;5896;42.686;23.142;2024-03-06T10:24:21;92973.09;;;13.11;50.90
11680;BME280;5896;42.686;23.142;2024-03-06T10:26:48;92970.00;;;12.97;49.37
11680;BME280;5896;42.686;23.142;2024-03-06T10:29:18;92973.63;;;12.39;51.61
11680;BME280;5896;42.686;23.142;2024-03-06T10:34:24;92968.69;;;11.43;53.96
11680;BME280;5896;42.686;23.142;2024-03-06T10:37:03;92968.34;;;11.40;54.64
11680;BME280;5896;42.686;23.142;2024-03-06T10:39:35;92969.41;;;11.09;56.92
11680;BME280;5896;42.686;23.142;2024-03-06T10:42:06;92969.34;;;11.39;56.27
11680;BME280;5896;42.686;23.142;2024-03-06T10:44:34;92972.78;;;11.98;53.02
11680;BME280;5896;42.686;23.142;2024-03-06T10:47:05;92959.72;;;12.16;52.93
11680;BME280;5896;42.686;23.142;2024-03-06T10:49:32;92963.28;;;12.15;52.92
11680;BME280;5896;42.686;23.142;2024-03-06T10:52:01;92967.56;;;10.56;55.16
11680;BME280;5896;42.686;23.142;2024-03-06T10:54:27;92962.22;;;10.39;56.04
11680;BME280;5896;42.686;23.142;2024-03-06T10:56:54;92950.47;;;11.15;54.02
11680;BME280;5896;42.686;23.142;2024-03-06T10:59:20;92952.47;;;11.13;55.44
11680;BME280;5896;42.686;23.142;2024-03-06T11:01:46;92947.97;;;11.08;54.19
11680;BME280;5896;42.686;23.142;2024-03-06T11:04:13;92946.50;;;11.01;55.22
11680;BME280;5896;42.686;23.142;2024-03-06T11:06:38;92937.34;;;10.75;56.10
11680;BME280;5896;42.686;23.142;2024-03-06T11:09:04;92948.94;;;10.54;53.77
11680;BME280;5896;42.686;23.142;2024-03-06T11:11:31;92936.19;;;10.40;53.14
11680;BME280;5896;42.686;23.142;2024-03-06T11:14:06;92926.38;;;10.91;51.41
11680;BME280;5896;42.686;23.142;2024-03-06T11:17:03;92925.88;;;11.48;48.51
11680;BME280;5896;42.686;23.142;2024-03-06T11:19:32;92912.59;;;12.03;47.62
11680;BME280;5896;42.686;23.142;2024-03-06T11:22:17;92907.50;;;12.48;48.01
11680;BME280;5896;42.686;23.142;2024-03-06T11:24:42;92902.44;;;13.49;43.52
11680;BME280;5896;42.686;23.142;2024-03-06T11:27:08;92902.09;;;13.62;40.77
11680;BME280;5896;42.686;23.142;2024-03-06T11:30:03;92897.16;;;14.22;42.26
11680;BME280;5896;42.686;23.142;2024-03-06T11:32:59;92896.28;;;14.38;38.38
11680;BME280;5896;42.686;23.142;2024-03-06T11:35:28;92891.34;;;14.36;42.42
11680;BME280;5896;42.686;23.142;2024-03-06T11:37:54;92878.19;;;14.97;38.74
11680;BME280;5896;42.686;23.142;2024-03-06T11:40:23;92875.84;;;13.76;40.21
11680;BME280;5896;42.686;23.142;2024-03-06T11:42:52;92871.34;;;14.86;43.01
11680;BME280;5896;42.686;23.142;2024-03-06T11:45:19;92876.13;;;15.37;38.55
11680;BME280;5896;42.686;23.142;2024-03-06T11:48:14;92869.38;;;15.36;38.41
11680;BME280;5896;42.686;23.142;2024-03-06T11:50:42;92870.28;;;14.33;39.81
11680;BME280;5896;42.686;23.142;2024-03-06T11:53:08;92863.88;;;13.97;41.65
11680;BME280;5896;42.686;23.142;2024-03-06T11:55:33;92877.19;;;12.32;44.03
11680;BME280;5896;42.686;23.142;2024-03-06T11:57:59;92873.03;;;11.79;45.46
11680;BME280;5896;42.686;23.142;2024-03-06T12:00:24;92872.94;;;12.54;43.09
11680;BME280;5896;42.686;23.142;2024-03-06T12:02:50;92866.34;;;12.35;44.68
11680;BME280;5896;42.686;23.142;2024-03-06T12:05:18;92872.09;;;11.97;44.27
11680;BME280;5896;42.686;23.142;2024-03-06T12:07:50;92864.50;;;11.55;47.13
11680;BME280;5896;42.686;23.142;2024-03-06T12:10:16;92872.63;;;11.47;45.38
11680;BME280;5896;42.686;23.142;2024-03-06T12:12:42;92866.09;;;11.56;45.64
11680;BME280;5896;42.686;23.142;2024-03-06T12:15:12;92866.75;;;11.63;46.66
11680;BME280;5896;42.686;23.142;2024-03-06T12:17:47;92870.47;;;11.90;44.22
11680;BME280;5896;42.686;23.142;2024-03-06T12:20:14;92859.03;;;12.44;43.79
11680;BME280;5896;42.686;23.142;2024-03-06T12:22:54;92855.13;;;12.29;42.53
11680;BME280;5896;42.686;23.142;2024-03-06T12:25:25;92854.94;;;12.48;43.56
11680;BME280;5896;42.686;23.142;2024-03-06T12:27:52;92844.56;;;13.27;39.53
11680;BME280;5896;42.686;23.142;2024-03-06T12:30:22;92847.41;;;13.86;38.40
11680;BME280;5896;42.686;23.142;2024-03-06T12:33:01;92843.69;;;13.38;38.14
11680;BME280;5896;42.686;23.142;2024-03-06T12:35:29;92842.50;;;13.12;37.88
11680;BME280;5896;42.686;23.142;2024-03-06T12:37:55;92840.69;;;13.46;36.46
11680;BME280;5896;42.686;23.142;2024-03-06T12:40:21;92843.19;;;13.80;36.22
11680;BME280;5896;42.686;23.142;2024-03-06T12:42:46;92836.44;;;13.79;39.22
11680;BME280;5896;42.686;23.142;2024-03-06T12:45:12;92844.38;;;14.16;37.64
11680;BME280;5896;42.686;23.142;2024-03-06T12:47:46;92833.97;;;14.38;36.40
11680;BME280;5896;42.686;23.142;2024-03-06T12:50:13;92837.97;;;14.24;35.61
11680;BME280;5896;42.686;23.142;2024-03-06T12:52:39;92836.06;;;13.92;36.13
11680;BME280;5896;42.686;23.142;2024-03-06T12:55:05;92835.22;;;12.92;37.44
11680;BME280;5896;42.686;23.142;2024-03-06T12:57:32;92828.44;;;14.51;36.26
11680;BME280;5896;42.686;23.142;2024-03-06T12:59:57;92842.03;;;14.64;35.59
11680;BME280;5896;42.686;23.142;2024-03-06T13:02:24;92840.91;;;13.83;36.50
11680;BME280;5896;42.686;23.142;2024-03-06T13:04:49;92839.63;;;14.57;36.29
11680;BME280;5896;42.686;23.142;2024-03-06T13:07:15;92840.31;;;14.74;36.25
11680;BME280;5896;42.686;23.142;2024-03-06T13:09:40;92842.81;;;14.96;37.36